createdAt,value
2023-04-01T00:01:28.703Z,9.90
2023-04-01T00:03:58.188Z,9.90
2023-04-01T00:06:27.782Z,9.90
2023-04-01T00:08:58.841Z,10.00
2023-04-01T00:11:28.594Z,10.00
2023-04-01T00:13:58.067Z,10.00
2023-04-01T00:16:27.724Z,10.00
2023-04-01T00:18:58.159Z,10.00
2023-04-01T00:21:27.555Z,10.00
2023-04-01T00:23:58.176Z,10.00
2023-04-01T00:26:27.856Z,9.90
2023-04-01T00:28:57.594Z,9.90
2023-04-01T00:31:27.500Z,9.90
2023-04-01T00:33:57.867Z,9.90
2023-04-01T00:36:27.894Z,9.90
2023-04-01T00:39:00.834Z,9.80
2023-04-01T00:41:30.012Z,9.80
2023-04-01T00:44:21.307Z,9.90
2023-04-01T00:46:50.418Z,9.80
2023-04-01T00:49:24.664Z,9.80
2023-04-01T00:51:57.344Z,9.80
2023-04-01T00:54:29.508Z,9.80
2023-04-01T00:57:02.128Z,9.80
2023-04-01T00:59:35.412Z,9.80
2023-04-01T01:02:05.707Z,9.80
2023-04-01T01:04:36.133Z,9.80
2023-04-01T01:07:17.595Z,9.80
2023-04-01T01:09:58.055Z,9.80
2023-04-01T01:12:32.799Z,9.80
2023-04-01T01:15:10.438Z,9.80
2023-04-01T01:17:50.526Z,9.80
2023-04-01T01:20:48.801Z,9.70
2023-04-01T01:23:35.213Z,9.70
2023-04-01T01:26:27.544Z,9.70
2023-04-01T01:29:08.394Z,9.70
2023-04-01T01:31:46.778Z,9.70
2023-04-01T01:34:22.403Z,9.70
2023-04-01T01:36:59.030Z,9.80
2023-04-01T01:39:32.555Z,9.80
2023-04-01T01:42:05.952Z,9.80
2023-04-01T01:44:35.894Z,9.80
2023-04-01T01:47:05.512Z,9.80
2023-04-01T01:49:36.821Z,9.80
2023-04-01T01:52:07.256Z,9.80
2023-04-01T01:54:36.557Z,9.80
2023-04-01T01:57:10.061Z,9.80
2023-04-01T01:59:45.156Z,9.80
2023-04-01T02:02:20.225Z,9.80
2023-04-01T02:04:51.025Z,9.80
2023-04-01T02:07:26.255Z,9.80
2023-04-01T02:09:55.569Z,9.80
2023-04-01T02:12:27.553Z,9.70
2023-04-01T02:14:59.998Z,9.70
2023-04-01T02:17:32.612Z,9.70
2023-04-01T02:20:05.670Z,9.70
2023-04-01T02:22:39.615Z,9.70
2023-04-01T02:25:12.922Z,9.70
2023-04-01T02:27:42.753Z,9.70
2023-04-01T02:30:13.662Z,9.70
2023-04-01T02:32:43.606Z,9.70
2023-04-01T02:35:14.899Z,9.70
2023-04-01T02:37:46.482Z,9.70
2023-04-01T02:40:17.558Z,9.70
2023-04-01T02:42:47.347Z,9.70
2023-04-01T02:45:16.917Z,9.60
2023-04-01T02:47:45.986Z,9.60
2023-04-01T02:50:15.079Z,9.60
2023-04-01T02:52:45.525Z,9.60
2023-04-01T02:55:15.266Z,9.60
2023-04-01T02:57:44.429Z,9.60
2023-04-01T03:00:14.323Z,9.60
2023-04-01T03:02:43.171Z,9.60
2023-04-01T03:05:12.246Z,9.60
2023-04-01T03:07:41.234Z,9.60
2023-04-01T03:10:12.474Z,9.60
2023-04-01T03:12:41.785Z,9.60
2023-04-01T03:15:14.600Z,9.60
2023-04-01T03:17:44.574Z,9.60
2023-04-01T03:20:14.824Z,9.60
2023-04-01T03:22:43.730Z,9.60
2023-04-01T03:25:14.203Z,9.60
2023-04-01T03:27:43.115Z,9.60
2023-04-01T03:30:13.092Z,9.60
2023-04-01T03:32:50.406Z,9.60
2023-04-01T03:35:19.817Z,9.60
2023-04-01T03:37:48.741Z,9.60
2023-04-01T03:40:19.428Z,9.60
2023-04-01T03:42:48.495Z,9.60
2023-04-01T03:45:18.185Z,9.60
2023-04-01T03:47:47.066Z,9.60
2023-04-01T03:50:16.404Z,9.60
2023-04-01T03:52:45.738Z,9.60
2023-04-01T03:55:15.078Z,9.60
2023-04-01T03:57:45.881Z,9.60
2023-04-01T04:00:21.104Z,9.60
2023-04-01T04:02:56.471Z,9.70
2023-04-01T04:05:32.545Z,9.60
2023-04-01T04:08:02.518Z,9.70
2023-04-01T04:10:31.455Z,9.70
2023-04-01T04:13:01.875Z,9.70
2023-04-01T04:15:33.741Z,9.70
2023-04-01T04:18:03.188Z,9.70
2023-04-01T04:20:32.616Z,9.70
2023-04-01T04:23:03.224Z,9.70
2023-04-01T04:25:32.134Z,9.70
2023-04-01T04:28:03.028Z,9.70
2023-04-01T04:30:32.002Z,9.70
2023-04-01T04:33:01.215Z,9.70
2023-04-01T04:35:30.891Z,9.70
2023-04-01T04:37:59.858Z,9.70
2023-04-01T04:40:28.791Z,9.70
2023-04-01T04:42:58.625Z,9.70
2023-04-01T04:45:29.612Z,9.70
2023-04-01T04:47:59.559Z,9.70
2023-04-01T04:50:29.147Z,9.70
2023-04-01T04:52:58.721Z,9.70
2023-04-01T04:55:28.029Z,9.70
2023-04-01T04:58:17.466Z,9.70
2023-04-01T05:00:50.121Z,9.70
2023-04-01T05:03:27.620Z,9.70
2023-04-01T05:05:57.154Z,9.70
2023-04-01T05:08:27.237Z,9.70
2023-04-01T05:10:56.088Z,9.70
2023-04-01T05:13:25.171Z,9.60
2023-04-01T05:15:56.856Z,9.60
2023-04-01T05:18:26.892Z,9.60
2023-04-01T05:20:57.409Z,9.60
2023-04-01T05:23:26.491Z,9.60
2023-04-01T05:25:55.312Z,9.70
2023-04-01T05:28:24.139Z,9.70
2023-04-01T05:30:54.817Z,9.60
2023-04-01T05:33:26.895Z,9.70
2023-04-01T05:35:56.202Z,9.60
2023-04-01T05:38:25.437Z,9.60
2023-04-01T05:41:01.524Z,9.60
2023-04-01T05:43:31.658Z,9.60
2023-04-01T05:46:09.241Z,9.60
2023-04-01T05:48:44.410Z,9.60
2023-04-01T05:51:16.248Z,9.60
2023-04-01T05:53:45.468Z,9.70
2023-04-01T05:56:15.125Z,9.60
2023-04-01T05:58:53.012Z,9.70
2023-04-01T06:01:24.599Z,9.70
2023-04-01T06:03:54.315Z,9.60
2023-04-01T06:06:26.997Z,9.70
2023-04-01T06:09:09.523Z,9.70
2023-04-01T06:11:49.025Z,9.70
2023-04-01T06:14:29.031Z,9.60
2023-04-01T06:17:19.607Z,9.70
2023-04-01T06:19:54.805Z,9.70
2023-04-01T06:22:55.433Z,9.70
2023-04-01T06:25:59.620Z,9.70
2023-04-01T06:29:04.100Z,9.80
2023-04-01T06:32:04.518Z,9.70
2023-04-01T06:35:01.358Z,9.70
2023-04-01T06:37:52.713Z,9.70
2023-04-01T06:40:45.169Z,9.70
2023-04-01T06:43:22.187Z,9.70
2023-04-01T06:46:40.078Z,9.70
2023-04-01T06:49:43.990Z,9.70
2023-04-01T06:52:45.157Z,9.80
2023-04-01T06:55:39.017Z,9.70
2023-04-01T06:58:25.105Z,9.70
2023-04-01T07:00:59.162Z,9.80
2023-04-01T07:03:35.125Z,9.80
2023-04-01T07:06:12.689Z,9.80
2023-04-01T07:08:53.689Z,9.80
2023-04-01T07:11:28.692Z,9.90
2023-04-01T07:14:22.122Z,9.90
2023-04-01T07:16:55.083Z,9.90
2023-04-01T07:19:31.127Z,9.90
2023-04-01T07:22:24.238Z,9.80
2023-04-01T07:25:21.473Z,9.90
2023-04-01T07:28:06.162Z,9.80
2023-04-01T07:30:48.229Z,9.90
2023-04-01T07:33:23.014Z,9.90
2023-04-01T07:35:57.433Z,9.90
2023-04-01T07:38:37.236Z,9.90
2023-04-01T07:41:12.363Z,9.90
2023-04-01T07:44:04.227Z,9.90
2023-04-01T07:46:54.644Z,9.90
2023-04-01T07:49:32.868Z,9.90
2023-04-01T07:52:07.844Z,9.90
2023-04-01T07:54:49.862Z,9.90
2023-04-01T07:57:23.118Z,10.00
2023-04-01T08:00:03.435Z,10.00
2023-04-01T08:03:26.185Z,10.00
2023-04-01T08:06:00.429Z,10.00
2023-04-01T08:08:41.438Z,10.00
2023-04-01T08:11:43.778Z,10.00
2023-04-01T08:14:51.373Z,10.10
2023-04-01T08:17:47.502Z,10.10
2023-04-01T08:20:27.537Z,10.20
2023-04-01T08:23:02.031Z,10.20
2023-04-01T08:25:42.060Z,10.20
2023-04-01T08:28:22.326Z,10.20
2023-04-01T08:30:55.954Z,10.20
2023-04-01T08:33:28.487Z,10.10
2023-04-01T08:36:10.980Z,10.30
2023-04-01T08:38:45.607Z,10.40
2023-04-01T08:41:53.876Z,10.30
2023-04-01T08:45:13.855Z,10.30
2023-04-01T08:48:24.839Z,10.30
2023-04-01T08:51:22.461Z,10.40
2023-04-01T08:54:17.712Z,10.30
2023-04-01T08:56:57.430Z,10.40
2023-04-01T08:59:43.616Z,10.40
2023-04-01T09:03:01.372Z,10.30
2023-04-01T09:05:50.859Z,10.30
2023-04-01T09:08:34.556Z,10.40
2023-04-01T09:15:00.401Z,10.40
2023-04-01T09:17:59.765Z,10.50
2023-04-01T09:20:47.144Z,10.60
2023-04-01T09:23:46.905Z,10.60
2023-04-01T09:26:39.021Z,10.60
2023-04-01T09:29:23.122Z,10.60
2023-04-01T09:32:13.207Z,10.60
2023-04-01T09:35:25.920Z,10.60
2023-04-01T09:38:20.330Z,10.70
2023-04-01T09:41:01.545Z,10.70
2023-04-01T09:44:06.390Z,10.70
2023-04-01T09:47:09.808Z,10.70
2023-04-01T09:50:00.093Z,10.70
2023-04-01T09:52:39.693Z,10.70
2023-04-01T09:55:55.699Z,10.80
2023-04-01T09:58:55.673Z,10.80
2023-04-01T10:01:57.285Z,10.70
2023-04-01T10:04:59.502Z,10.70
2023-04-01T10:07:59.165Z,10.70
2023-04-01T10:10:54.219Z,10.70
2023-04-01T10:14:09.602Z,10.90
2023-04-01T10:17:08.151Z,10.90
2023-04-01T10:20:20.695Z,10.80
2023-04-01T10:23:09.932Z,10.70
2023-04-01T10:26:16.693Z,10.90
2023-04-01T10:29:17.067Z,10.90
2023-04-01T10:32:20.822Z,10.90
2023-04-01T10:35:12.020Z,10.80
2023-04-01T10:38:17.103Z,10.70
2023-04-01T10:41:04.815Z,10.60
2023-04-01T10:44:39.731Z,10.70
2023-04-01T10:47:54.804Z,10.70
2023-04-01T10:50:45.786Z,10.70
2023-04-01T10:53:48.708Z,10.80
2023-04-01T10:56:57.513Z,10.80
2023-04-01T10:59:49.276Z,10.80
2023-04-01T11:03:28.574Z,10.80
2023-04-01T11:06:41.780Z,10.80
2023-04-01T11:09:54.092Z,10.70
2023-04-01T11:13:02.065Z,10.70
2023-04-01T11:15:55.527Z,10.80
2023-04-01T11:19:07.097Z,10.80
2023-04-01T11:21:59.771Z,10.70
2023-04-01T11:25:28.135Z,10.70
2023-04-01T11:28:42.547Z,10.70
2023-04-01T11:31:36.718Z,10.80
2023-04-01T11:34:19.348Z,10.80
2023-04-01T11:37:00.846Z,10.90
2023-04-01T11:39:42.438Z,11.00
2023-04-01T11:42:40.238Z,11.20
2023-04-01T11:45:38.834Z,11.20
2023-04-01T11:48:35.374Z,11.20
2023-04-01T11:51:40.343Z,11.30
2023-04-01T11:54:20.711Z,11.20
2023-04-01T11:57:06.080Z,11.00
2023-04-01T12:00:20.112Z,10.90
2023-04-01T12:03:11.715Z,11.00
2023-04-01T12:05:48.437Z,11.00
2023-04-01T12:43:39.260Z,11.20
2023-04-01T13:34:17.048Z,10.90
2023-04-01T13:37:21.994Z,10.90
2023-04-01T13:40:06.155Z,10.90
2023-04-01T13:42:40.498Z,10.80
2023-04-01T13:45:18.025Z,10.90
2023-04-01T13:48:26.003Z,10.90
2023-04-01T13:51:21.464Z,11.00
2023-04-01T13:54:22.439Z,11.00
2023-04-01T13:56:59.959Z,11.00
2023-04-01T13:59:54.434Z,10.90
2023-04-01T14:02:41.045Z,10.90
2023-04-01T14:05:44.303Z,11.00
2023-04-01T14:08:26.364Z,10.80
2023-04-01T14:11:04.315Z,10.80
2023-04-01T14:13:42.700Z,10.80
2023-04-01T14:16:34.949Z,10.80
2023-04-01T14:19:26.713Z,10.80
2023-04-01T14:22:12.952Z,10.70
2023-04-01T14:38:01.181Z,10.70
2023-04-01T14:56:03.890Z,10.80
2023-04-01T14:59:05.171Z,10.90
2023-04-01T15:01:57.872Z,10.80
2023-04-01T15:06:07.876Z,10.80
2023-04-01T15:09:04.422Z,10.70
2023-04-01T15:12:15.458Z,10.60
2023-04-01T15:15:41.029Z,10.60
2023-04-01T15:18:38.941Z,10.60
2023-04-01T15:21:27.409Z,10.50
2023-04-01T15:24:29.709Z,10.60
2023-04-01T15:28:00.671Z,10.50
2023-04-01T16:07:31.381Z,10.60
2023-04-01T16:15:21.138Z,10.60
2023-04-01T17:02:11.502Z,10.60
2023-04-01T17:17:04.425Z,10.60
2023-04-01T17:20:11.895Z,10.60
2023-04-01T17:22:50.296Z,10.60
2023-04-01T17:25:53.091Z,10.50
2023-04-01T17:28:37.682Z,10.50
2023-04-01T17:31:15.276Z,10.60
2023-04-01T17:34:22.761Z,10.60
2023-04-01T17:37:04.822Z,10.60
2023-04-01T17:39:45.494Z,10.60
2023-04-01T17:42:18.654Z,10.60
2023-04-01T17:44:55.968Z,10.60
2023-04-01T17:47:39.085Z,10.60
2023-04-01T17:50:21.697Z,10.50
2023-04-01T17:52:59.615Z,10.60
2023-04-01T17:56:03.205Z,10.60
2023-04-01T17:58:37.916Z,10.50
2023-04-01T18:01:18.149Z,10.50
2023-04-01T18:04:10.321Z,10.50
2023-04-01T18:06:54.568Z,10.50
2023-04-01T18:09:36.082Z,10.50
2023-04-01T18:12:15.391Z,10.50
2023-04-01T18:15:06.587Z,10.40
2023-04-01T18:17:48.708Z,10.40
2023-04-01T18:20:31.600Z,10.50
2023-04-01T18:23:03.868Z,10.40
2023-04-01T18:25:39.223Z,10.40
2023-04-01T18:28:38.411Z,10.40
2023-04-01T18:31:12.459Z,10.40
2023-04-01T18:33:50.574Z,10.40
2023-04-01T18:36:26.941Z,10.50
2023-04-01T18:38:59.932Z,10.50
2023-04-01T18:41:38.985Z,10.40
2023-04-01T18:44:28.677Z,10.40
2023-04-01T18:47:08.046Z,10.40
2023-04-01T18:49:45.772Z,10.40
2023-04-01T18:52:22.524Z,10.40
2023-04-01T18:55:30.722Z,10.40
2023-04-01T18:58:14.607Z,10.40
2023-04-01T19:00:52.269Z,10.40
2023-04-01T19:03:28.761Z,10.40
2023-04-01T19:06:11.389Z,10.40
2023-04-01T19:08:44.024Z,10.40
2023-04-01T19:11:19.919Z,10.40
2023-04-01T19:13:59.196Z,10.40
2023-04-01T19:16:44.970Z,10.40
2023-04-01T19:19:41.126Z,10.40
2023-04-01T19:22:24.267Z,10.40
2023-04-01T19:25:13.306Z,10.40
2023-04-01T19:27:48.586Z,10.40
2023-04-01T19:30:39.293Z,10.30
2023-04-01T19:33:26.794Z,10.30
2023-04-01T19:36:03.416Z,10.30
2023-04-01T19:38:39.051Z,10.30
2023-04-01T19:41:28.397Z,10.20
2023-04-01T19:44:06.456Z,10.20
2023-04-01T19:46:39.319Z,10.20
2023-04-01T19:49:40.548Z,10.20
2023-04-01T19:52:16.595Z,10.30
2023-04-01T19:54:51.318Z,10.30
2023-04-01T19:57:27.216Z,10.30
2023-04-01T20:00:22.529Z,10.40
2023-04-01T20:03:03.607Z,10.40
2023-04-01T20:05:52.022Z,10.40
2023-04-01T20:08:28.752Z,10.50
2023-04-01T20:11:10.368Z,10.40
2023-04-01T20:13:50.158Z,10.40
2023-04-01T20:16:19.567Z,10.40
2023-04-01T20:18:55.349Z,10.40
2023-04-01T20:21:37.195Z,10.40
2023-04-01T20:24:17.380Z,10.40
2023-04-01T20:26:51.991Z,10.40
2023-04-01T20:29:58.475Z,10.40
2023-04-01T20:32:43.593Z,10.40
2023-04-01T20:39:35.028Z,10.40
2023-04-01T20:42:45.506Z,10.30
2023-04-01T20:56:00.066Z,10.00
2023-04-01T21:04:54.724Z,9.80
2023-04-01T21:07:49.743Z,9.60
2023-04-01T21:10:48.980Z,9.60
2023-04-01T21:28:46.729Z,9.50
2023-04-01T21:34:09.428Z,9.40
2023-04-01T21:36:07.301Z,9.40
2023-04-01T21:38:53.680Z,9.30
2023-04-01T21:42:27.639Z,9.20
2023-04-01T21:46:08.174Z,9.10
2023-04-01T21:49:15.507Z,9.10
2023-04-01T21:52:07.596Z,9.10
2023-04-01T21:55:21.422Z,9.10
2023-04-01T21:58:45.701Z,9.00
2023-04-01T22:02:01.692Z,9.00
2023-04-01T22:04:59.815Z,9.00
2023-04-01T22:08:10.659Z,8.90
2023-04-01T22:10:48.443Z,8.90
2023-04-01T22:13:23.000Z,8.80
2023-04-01T22:16:05.107Z,8.70
2023-04-01T22:19:35.614Z,8.70
2023-04-01T22:21:53.544Z,8.70
2023-04-01T22:32:19.556Z,8.60
2023-04-01T22:34:59.152Z,8.50
2023-04-01T22:37:35.966Z,8.50
2023-04-01T22:40:24.990Z,8.50
2023-04-01T22:43:00.689Z,8.40
2023-04-01T22:45:56.116Z,8.40
2023-04-01T22:48:34.216Z,8.40
2023-04-01T22:51:10.323Z,8.30
2023-04-01T22:53:57.019Z,8.40
2023-04-01T22:56:31.811Z,8.50
2023-04-01T22:59:07.799Z,8.40
2023-04-01T23:01:45.242Z,8.30
2023-04-01T23:04:21.533Z,8.40
2023-04-01T23:07:06.783Z,8.30
2023-04-01T23:09:38.786Z,8.20
2023-04-01T23:12:12.439Z,8.20
2023-04-01T23:14:48.185Z,8.20
2023-04-01T23:17:43.776Z,8.10
2023-04-01T23:20:28.729Z,8.00
2023-04-01T23:23:22.355Z,8.00
2023-04-01T23:25:59.630Z,8.00
2023-04-01T23:28:43.591Z,7.80
2023-04-01T23:31:39.156Z,7.70
2023-04-01T23:34:32.458Z,7.70
2023-04-01T23:37:07.056Z,7.70
2023-04-01T23:39:39.156Z,7.70
2023-04-01T23:42:10.088Z,7.70
2023-04-01T23:44:39.571Z,7.60
2023-04-01T23:47:11.648Z,7.60
2023-04-01T23:49:44.326Z,7.60
2023-04-01T23:52:22.239Z,7.60
2023-04-01T23:54:55.011Z,7.60
2023-04-01T23:57:30.306Z,7.60
